Time;durP1;ratioP1;P1;durP2;ratioP2;P2;SDS_P1;SDS_P2;PMS_P1;PMS_P2;Temp;Humidity;BMP_temperature;BMP_pressure;BME280_temperature;BME280_humidity;BME280_pressure;Samples;Min_cycle;Max_cycle;Signal;HPM_P1;HPM_P2
2023/10/01 00:00:22;;;;;;;2.33;2.10;;;;;;;23.10;69.39;98459.41;5012421;28;20202;-25
2023/10/01 00:02:51;;;;;;;2.40;2.20;;;;;;;23.10;69.42;98453.38;5006469;28;20202;-25
2023/10/01 00:05:21;;;;;;;2.57;2.20;;;;;;;23.12;69.42;98464.59;4998174;28;20218;-25
2023/10/01 00:07:51;;;;;;;2.20;2.00;;;;;;;23.10;69.38;98461.06;5012233;28;20300;-25
2023/10/01 00:10:18;;;;;;;2.30;2.10;;;;;;;23.09;69.39;98464.44;5012140;28;20198;-25
2023/10/01 00:12:49;;;;;;;2.40;2.20;;;;;;;23.09;69.47;98462.75;5011759;28;20214;-25
2023/10/01 00:15:21;;;;;;;3.30;2.33;;;;;;;23.08;69.52;98465.25;5007986;28;20572;-25
2023/10/01 00:17:48;;;;;;;3.83;2.30;;;;;;;23.09;69.63;98474.69;5012112;28;20309;-25
2023/10/01 00:20:20;;;;;;;2.20;2.00;;;;;;;23.09;69.61;98479.81;5012228;28;20209;-25
2023/10/01 00:22:48;;;;;;;2.23;2.00;;;;;;;23.09;69.28;98469.56;5010433;28;20210;-25
2023/10/01 00:25:15;;;;;;;2.30;2.10;;;;;;;23.09;69.53;98470.44;5011653;28;20312;-25
2023/10/01 00:27:42;;;;;;;2.37;2.17;;;;;;;23.09;69.53;98465.31;5011776;28;20308;-25
2023/10/01 00:30:10;;;;;;;2.73;2.40;;;;;;;23.10;69.40;98468.78;5012274;28;20596;-25
2023/10/01 00:32:37;;;;;;;2.83;2.30;;;;;;;23.09;69.66;98461.88;5011817;28;20268;-25
2023/10/01 00:35:04;;;;;;;2.30;2.10;;;;;;;23.10;69.43;98471.34;5009559;28;20194;-25
2023/10/01 00:37:32;;;;;;;2.80;2.20;;;;;;;23.10;69.43;98467.09;5011581;28;20226;-25
2023/10/01 00:39:59;;;;;;;2.17;1.97;;;;;;;23.09;69.36;98457.63;5011477;28;20206;-25
2023/10/01 00:42:28;;;;;;;2.80;2.50;;;;;;;23.09;69.47;98455.06;5011665;28;20236;-25
2023/10/01 00:44:55;;;;;;;2.43;2.23;;;;;;;23.10;69.51;98458.50;5008182;28;20264;-25
2023/10/01 00:47:22;;;;;;;3.10;2.27;;;;;;;23.10;69.32;98454.28;5009375;28;20214;-25
2023/10/01 00:49:49;;;;;;;2.30;2.10;;;;;;;23.09;69.44;98460.19;5010625;28;20577;-25
2023/10/01 00:52:18;;;;;;;2.40;2.20;;;;;;;23.10;69.38;98455.94;5014514;28;20236;-25
2023/10/01 00:54:46;;;;;;;2.70;2.50;;;;;;;23.09;69.38;98452.50;5015808;28;20216;-25
2023/10/01 00:57:15;;;;;;;2.63;2.20;;;;;;;23.10;69.46;98455.94;5014999;28;20202;-25
2023/10/01 00:59:43;;;;;;;3.37;2.50;;;;;;;23.09;69.59;98455.06;5012978;28;20349;-25
2023/10/01 01:02:10;;;;;;;2.53;2.30;;;;;;;23.07;69.47;98453.28;5003168;28;20718;-25
2023/10/01 01:04:42;;;;;;;3.10;2.60;;;;;;;23.09;69.49;98451.63;5013436;28;20254;-25
2023/10/01 01:07:16;;;;;;;2.50;2.30;;;;;;;23.09;69.45;98449.94;5015022;28;20249;-25
2023/10/01 01:09:43;;;;;;;2.40;2.20;;;;;;;22.61;69.42;98360.03;5015477;28;20307;-25
2023/10/01 01:12:10;;;;;;;2.90;2.60;;;;;;;23.09;69.42;98452.50;5005055;28;20249;-25
2023/10/01 01:14:36;;;;;;;2.50;2.30;;;;;;;23.10;69.47;98453.38;5015273;28;20206;-25
2023/10/01 01:17:06;;;;;;;2.47;2.27;;;;;;;23.11;69.46;98447.44;5015278;28;20687;-25
2023/10/01 01:19:34;;;;;;;2.97;2.67;;;;;;;23.11;69.58;98447.44;5015288;28;20229;-25
2023/10/01 01:22:02;;;;;;;3.07;2.33;;;;;;;23.11;69.26;98444.88;5015116;28;20202;-25
2023/10/01 01:24:29;;;;;;;2.87;2.50;;;;;;;23.10;69.42;98435.44;5015093;28;20291;-25
2023/10/01 01:27:00;;;;;;;2.63;2.43;;;;;;;23.10;69.45;98440.56;5011875;28;20219;-25
2023/10/01 01:29:34;;;;;;;3.13;2.50;;;;;;;23.09;69.35;98441.34;5013482;28;20700;-25
2023/10/01 01:32:15;;;;;;;2.77;2.50;;;;;;;23.08;69.44;98435.38;5007617;28;20209;-25
2023/10/01 01:34:43;;;;;;;2.40;2.20;;;;;;;23.09;69.29;98443.91;5014819;28;20743;-25
2023/10/01 01:37:30;;;;;;;3.13;2.73;;;;;;;23.09;69.65;98442.25;5014598;28;20213;-25
2023/10/01 01:39:57;;;;;;;2.73;2.30;;;;;;;23.09;69.42;98441.34;5015140;28;20288;-25
2023/10/01 01:42:25;;;;;;;2.53;2.33;;;;;;;23.09;69.49;98441.34;5013731;28;20209;-25
2023/10/01 01:47:38;;;;;;;2.47;2.27;;;;;;;23.09;69.38;98436.22;5014105;28;20288;-25
2023/10/01 01:50:26;;;;;;;2.63;2.40;;;;;;;23.10;69.34;98443.13;5014016;28;20202;-26
2023/10/01 01:52:56;;;;;;;2.90;2.40;;;;;;;23.10;69.42;98435.44;5009882;28;20203;-25
2023/10/01 01:55:25;;;;;;;2.87;2.30;;;;;;;23.10;69.35;98435.44;5013531;28;20202;-25
2023/10/01 01:58:06;;;;;;;2.60;2.40;;;;;;;23.10;69.32;98431.19;5014390;28;20269;-25
2023/10/01 02:00:37;;;;;;;2.57;2.20;;;;;;;23.09;69.25;98431.09;5014363;28;20210;-25
2023/10/01 02:03:10;;;;;;;2.90;2.60;;;;;;;23.09;69.34;98429.41;5007300;28;20594;-25
2023/10/01 02:05:41;;;;;;;3.40;2.77;;;;;;;23.09;69.38;98428.53;5014220;28;20660;-25
2023/10/01 02:08:23;;;;;;;2.90;2.40;;;;;;;23.08;69.10;98435.38;5006296;28;20603;-25
2023/10/01 02:10:56;;;;;;;3.23;2.70;;;;;;;23.10;69.46;98440.56;5012821;28;20295;-25
2023/10/01 02:13:25;;;;;;;2.73;2.50;;;;;;;23.09;69.44;98436.22;5014482;28;20310;-25
2023/10/01 02:15:53;;;;;;;3.40;2.20;;;;;;;23.09;69.55;98436.22;5014093;28;20199;-35
2023/10/01 02:18:20;;;;;;;2.63;2.43;;;;;;;23.09;69.54;98428.53;5014128;28;20239;-25
2023/10/01 02:20:56;;;;;;;2.90;2.53;;;;;;;23.09;69.37;98439.69;5014045;28;20257;-25
2023/10/01 02:23:26;;;;;;;2.80;2.50;;;;;;;23.09;69.63;98437.13;5014275;28;20206;-25
2023/10/01 02:25:53;;;;;;;2.53;2.33;;;;;;;23.09;69.41;98434.56;5013751;28;20222;-25
2023/10/01 02:28:19;;;;;;;3.43;2.70;;;;;;;23.10;69.44;98440.56;5014213;28;20288;-25
2023/10/01 02:30:46;;;;;;;3.33;2.37;;;;;;;23.10;69.44;98445.69;5013780;28;20199;-25
2023/10/01 02:33:16;;;;;;;2.87;2.53;;;;;;;23.10;69.43;98436.31;5013777;28;20289;-25
2023/10/01 02:35:48;;;;;;;2.50;2.30;;;;;;;23.11;69.34;98439.75;5013263;28;20735;-25
2023/10/01 02:41:15;;;;;;;2.93;2.50;;;;;;;23.10;69.25;98440.56;4988810;28;20280;-25
2023/10/01 02:43:42;;;;;;;3.37;2.30;;;;;;;23.10;69.27;98438.00;5013533;28;20210;-25
2023/10/01 02:46:11;;;;;;;3.20;2.30;;;;;;;23.09;69.16;98442.25;5013316;28;20214;-25
2023/10/01 02:48:41;;;;;;;2.57;2.37;;;;;;;23.08;69.31;98432.81;5013398;28;20607;-25
2023/10/01 02:51:14;;;;;;;2.97;2.60;;;;;;;23.04;69.28;98430.06;5007840;28;20257;-25
2023/10/01 02:54:05;;;;;;;3.03;2.73;;;;;;;23.07;69.39;98436.19;5010449;28;20253;-25
2023/10/01 02:56:37;;;;;;;2.43;2.23;;;;;;;23.08;69.31;98435.38;5013224;28;20572;-25
2023/10/01 02:59:12;;;;;;;2.60;2.40;;;;;;;23.08;69.44;98429.38;5013472;28;20218;-25
2023/10/01 03:01:46;;;;;;;2.83;2.40;;;;;;;23.08;69.42;98432.81;5013303;28;20201;-25
2023/10/01 03:04:16;;;;;;;2.60;2.40;;;;;;;23.08;69.35;98432.81;5005812;28;20206;-25
2023/10/01 03:06:56;;;;;;;2.67;2.40;;;;;;;23.08;69.30;98429.38;5013037;28;20234;-25
2023/10/01 03:09:33;;;;;;;2.57;2.30;;;;;;;23.09;69.37;98431.09;5007318;28;20229;-25
2023/10/01 03:15:00;;;;;;;2.50;2.30;;;;;;;23.09;69.27;98421.72;5012323;28;20206;-25
2023/10/01 03:17:33;;;;;;;2.60;2.40;;;;;;;23.09;69.01;98415.72;5007620;28;20230;-25
2023/10/01 03:20:15;;;;;;;2.43;2.23;;;;;;;23.08;69.20;98425.13;5013054;28;20202;-25
2023/10/01 03:22:51;;;;;;;2.40;2.20;;;;;;;23.09;69.27;98421.72;5009572;28;20205;-25
2023/10/01 03:25:28;;;;;;;4.00;2.40;;;;;;;23.08;69.19;98421.66;5007933;28;20244;-25
2023/10/01 03:27:58;;;;;;;2.83;2.60;;;;;;;23.07;69.22;98417.38;5013106;28;20249;-25
2023/10/01 03:30:31;;;;;;;2.60;2.40;;;;;;;23.07;69.44;98433.59;5012858;28;20213;-25
2023/10/01 03:33:07;;;;;;;2.50;2.30;;;;;;;23.07;69.52;98428.47;5012970;28;20225;-25
2023/10/01 03:35:35;;;;;;;3.07;2.50;;;;;;;23.08;69.37;98431.94;5012554;28;20213;-25
2023/10/01 03:38:10;;;;;;;2.60;2.20;;;;;;;23.07;69.34;98428.47;5012903;28;20657;-25
2023/10/01 03:40:57;;;;;;;2.70;2.50;;;;;;;23.08;69.34;98424.25;5012500;28;20233;-25
2023/10/01 03:43:36;;;;;;;2.50;2.30;;;;;;;23.07;69.29;98423.34;5006457;28;20201;-25
2023/10/01 03:46:13;;;;;;;2.63;2.40;;;;;;;23.07;69.37;98428.47;5011947;28;20222;-25
2023/10/01 03:57:22;;;;;;;2.50;2.30;;;;;;;23.08;69.04;98431.94;5004382;28;20205;-25
2023/10/01 03:59:52;;;;;;;2.40;2.20;;;;;;;23.08;69.26;98429.38;5011920;28;20202;-25
2023/10/01 04:02:47;;;;;;;3.00;2.70;;;;;;;23.08;69.05;98429.38;5005315;28;20285;-25
2023/10/01 04:05:30;;;;;;;2.63;2.40;;;;;;;23.06;69.23;98424.19;5010317;28;20202;-25
2023/10/01 04:08:07;;;;;;;2.90;2.57;;;;;;;23.07;69.27;98427.63;5012238;28;20589;-25
2023/10/01 04:10:35;;;;;;;2.90;2.60;;;;;;;23.06;69.30;98434.44;5003712;28;20256;-25
2023/10/01 04:13:12;;;;;;;2.60;2.40;;;;;;;23.07;69.39;98422.50;5012523;28;20244;-25
2023/10/01 04:15:48;;;;;;;3.17;2.67;;;;;;;23.07;69.31;98422.50;5012177;28;20206;-25
2023/10/01 04:20:48;;;;;;;2.43;2.23;;;;;;;23.07;69.33;98417.38;5012007;28;20230;-25
2023/10/01 04:23:29;;;;;;;2.30;2.10;;;;;;;23.06;69.40;98418.16;5004286;28;20207;-25
2023/10/01 04:25:56;;;;;;;3.00;2.50;;;;;;;23.07;69.32;98423.34;5011847;28;20233;-25
2023/10/01 04:28:23;;;;;;;2.83;2.53;;;;;;;23.07;69.30;98417.38;5012053;28;20275;-25
2023/10/01 04:30:51;;;;;;;2.90;2.60;;;;;;;23.08;69.06;98414.88;5008348;28;20205;-25
2023/10/01 04:33:22;;;;;;;2.50;2.30;;;;;;;23.08;69.29;98416.53;5004266;28;20202;-25
2023/10/01 04:35:55;;;;;;;3.40;2.70;;;;;;;23.08;69.37;98406.28;5011867;28;20252;-25
2023/10/01 04:38:22;;;;;;;3.00;2.60;;;;;;;23.07;69.25;98407.97;5004707;28;20272;-25
2023/10/01 04:40:49;;;;;;;2.40;2.20;;;;;;;23.05;69.16;98401.03;5003760;28;20267;-25
2023/10/01 04:43:16;;;;;;;2.77;2.47;;;;;;;23.07;69.20;98412.25;5010494;28;20234;-25
2023/10/01 04:45:44;;;;;;;3.03;2.50;;;;;;;23.07;69.27;98417.38;5011544;28;20665;-25
2023/10/01 04:48:22;;;;;;;2.57;2.27;;;;;;;23.07;69.13;98412.25;5011571;28;20234;-25
2023/10/01 04:50:50;;;;;;;2.60;2.40;;;;;;;23.07;69.32;98412.25;5011725;28;20287;-25
2023/10/01 04:53:20;;;;;;;2.57;2.37;;;;;;;23.07;69.46;98409.69;5011490;28;20198;-25
2023/10/01 04:55:57;;;;;;;2.70;2.50;;;;;;;23.07;69.30;98407.97;5004268;28;20199;-25
2023/10/01 04:58:24;;;;;;;3.07;2.77;;;;;;;23.08;69.13;98408.84;5009351;28;20675;-25
2023/10/01 05:00:51;;;;;;;2.93;2.27;;;;;;;23.07;69.25;98405.41;5011489;28;20285;-25
2023/10/01 05:03:17;;;;;;;2.37;2.17;;;;;;;23.08;69.08;98399.47;5011464;28;20194;-25
2023/10/01 05:05:44;;;;;;;2.20;2.00;;;;;;;23.08;69.17;98407.16;5011363;28;20198;-25
2023/10/01 05:08:13;;;;;;;2.43;2.20;;;;;;;23.08;69.28;98403.72;5011438;28;20603;-25
2023/10/01 05:10:53;;;;;;;2.57;2.37;;;;;;;23.08;69.26;98401.16;5011245;28;20198;-25
2023/10/01 05:13:20;;;;;;;2.70;2.50;;;;;;;23.08;69.12;98403.72;5011683;28;20231;-25
2023/10/01 05:15:55;;;;;;;2.60;2.40;;;;;;;23.07;69.31;98395.16;5011454;28;20203;-25
2023/10/01 05:18:26;;;;;;;2.47;2.23;;;;;;;23.08;69.06;98396.03;5005955;28;20267;-25
2023/10/01 05:20:58;;;;;;;2.53;2.33;;;;;;;23.08;68.85;98402.03;5011341;28;20202;-25
2023/10/01 05:23:29;;;;;;;2.50;2.30;;;;;;;23.09;68.98;98402.91;5004135;28;20212;-25
2023/10/01 05:25:56;;;;;;;2.93;2.53;;;;;;;23.07;69.42;98402.84;5007683;28;20675;-25
2023/10/01 05:28:24;;;;;;;2.93;2.50;;;;;;;23.08;69.14;98413.97;5011395;28;20644;-25
2023/10/01 05:30:57;;;;;;;2.93;2.63;;;;;;;23.07;68.97;98407.97;5011283;28;20202;-25
2023/10/01 05:33:24;;;;;;;2.97;2.60;;;;;;;23.07;69.08;98409.69;5003391;28;20198;-25
2023/10/01 05:35:57;;;;;;;2.50;2.30;;;;;;;23.08;69.18;98408.84;5010990;28;20237;-25
2023/10/01 05:38:26;;;;;;;2.90;2.47;;;;;;;23.08;69.19;98413.97;5006397;28;20233;-25
2023/10/01 05:40:55;;;;;;;2.53;2.33;;;;;;;23.08;69.10;98421.66;5015064;28;20574;-25
2023/10/01 05:43:27;;;;;;;2.67;2.47;;;;;;;23.07;69.57;98425.91;5006841;28;20285;-25
2023/10/01 05:45:54;;;;;;;2.60;2.40;;;;;;;23.09;69.13;98434.56;5014498;28;20228;-25
2023/10/01 05:48:23;;;;;;;2.70;2.50;;;;;;;23.10;69.16;98438.00;5014260;28;20222;-25
2023/10/01 05:50:51;;;;;;;2.90;2.60;;;;;;;23.10;69.05;98432.88;5015042;28;20198;-25
2023/10/01 05:53:18;;;;;;;3.37;2.70;;;;;;;23.10;69.04;98443.13;5014309;28;20689;-25
2023/10/01 05:55:45;;;;;;;2.93;2.60;;;;;;;23.08;69.10;98440.50;5014716;28;20198;-25
2023/10/01 05:58:16;;;;;;;3.30;2.77;;;;;;;23.08;69.03;98445.63;5014430;28;20266;-25
2023/10/01 06:00:56;;;;;;;2.63;2.27;;;;;;;23.09;68.88;98446.50;5015000;28;20213;-25
2023/10/01 06:03:24;;;;;;;2.83;2.50;;;;;;;23.09;69.01;98459.31;5014122;28;20717;-25
2023/10/01 06:05:57;;;;;;;3.43;2.40;;;;;;;23.09;69.03;98464.44;5014813;28;20285;-25
2023/10/01 06:08:25;;;;;;;3.13;2.70;;;;;;;23.09;69.29;98467.00;5010398;28;20268;-25
2023/10/01 06:10:59;;;;;;;2.97;2.43;;;;;;;23.08;69.22;98462.69;5014250;28;20206;-25
2023/10/01 06:13:28;;;;;;;2.77;2.47;;;;;;;23.09;69.02;98467.88;5014432;28;20209;-25
2023/10/01 06:15:58;;;;;;;2.27;2.07;;;;;;;23.08;69.03;98466.16;5014260;28;20579;-25
2023/10/01 06:18:26;;;;;;;2.90;2.60;;;;;;;23.10;69.10;98468.78;5006011;28;20641;-25
2023/10/01 06:20:53;;;;;;;2.33;2.13;;;;;;;23.08;69.04;98461.03;5014394;28;20245;-25
2023/10/01 06:23:21;;;;;;;2.80;2.50;;;;;;;23.10;68.83;98476.47;5014216;28;20288;-25
2023/10/01 06:25:53;;;;;;;2.87;2.57;;;;;;;23.10;69.02;98476.47;5014135;28;20198;-25
2023/10/01 06:28:20;;;;;;;2.57;2.13;;;;;;;23.10;68.99;98473.91;5013861;28;20275;-25
2023/10/01 06:30:48;;;;;;;2.70;2.50;;;;;;;23.09;69.10;98472.13;5013993;28;20261;-25
2023/10/01 06:33:29;;;;;;;2.70;2.50;;;;;;;23.08;69.14;98466.16;5005785;28;20294;-25
2023/10/01 06:38:43;;;;;;;2.80;2.50;;;;;;;23.07;68.96;98468.66;5007771;28;20284;-25
2023/10/01 06:41:16;;;;;;;3.27;2.67;;;;;;;23.07;68.83;98464.38;5013674;28;20202;-25
2023/10/01 06:43:49;;;;;;;2.50;2.30;;;;;;;23.09;69.05;98467.00;5013680;28;20260;-25
2023/10/01 06:46:22;;;;;;;3.03;2.73;;;;;;;23.08;69.02;98467.81;5011972;28;20269;-25
2023/10/01 06:48:50;;;;;;;2.73;2.53;;;;;;;23.07;68.98;98469.50;5007180;28;20304;-25
2023/10/01 06:51:21;;;;;;;3.10;2.43;;;;;;;23.08;69.08;98476.41;5013441;28;20202;-25
2023/10/01 06:53:59;;;;;;;2.77;2.57;;;;;;;23.09;69.01;98479.81;5013602;28;20195;-25
2023/10/01 06:56:27;;;;;;;2.57;2.37;;;;;;;23.04;68.98;98464.25;5013158;28;20233;-25
2023/10/01 07:01:34;;;;;;;2.90;2.70;;;;;;;23.10;68.97;98489.28;5005283;28;20209;-25
2023/10/01 07:04:02;;;;;;;2.50;2.30;;;;;;;23.10;68.99;98486.72;5013055;28;20194;-25
2023/10/01 07:06:29;;;;;;;2.80;2.50;;;;;;;23.10;68.96;98494.41;5004750;28;20252;-25
2023/10/01 07:08:56;;;;;;;2.60;2.40;;;;;;;23.08;68.95;98486.66;5013348;28;20272;-25
2023/10/01 07:11:23;;;;;;;2.80;2.60;;;;;;;23.08;68.93;98502.03;5013405;28;20206;-25
2023/10/01 07:13:52;;;;;;;3.23;2.73;;;;;;;23.08;68.82;98501.16;5013220;28;20724;-25
2023/10/01 07:16:35;;;;;;;2.93;2.57;;;;;;;23.08;68.92;98496.03;5013200;28;20291;-25
2023/10/01 07:19:05;;;;;;;2.57;2.37;;;;;;;23.08;68.95;98504.63;5008909;28;20221;-25
2023/10/01 07:21:34;;;;;;;2.80;2.53;;;;;;;23.08;68.88;98496.03;5013141;28;20194;-25
2023/10/01 07:24:01;;;;;;;2.87;2.57;;;;;;;23.09;69.08;98490.06;5008878;28;20198;-25
2023/10/01 07:26:31;;;;;;;2.97;2.60;;;;;;;23.07;69.07;98495.16;5012784;28;20206;-25
2023/10/01 07:28:59;;;;;;;3.00;2.60;;;;;;;23.08;68.95;98496.03;5012681;28;20249;-25
2023/10/01 07:31:26;;;;;;;2.87;2.37;;;;;;;23.07;69.05;98490.03;5013151;28;20244;-25
2023/10/01 07:33:54;;;;;;;2.73;2.53;;;;;;;23.08;68.80;98494.34;5012916;28;20203;-25
2023/10/01 07:36:23;;;;;;;2.90;2.50;;;;;;;23.09;69.03;98485.84;5012598;28;20202;-25
2023/10/01 07:38:52;;;;;;;2.27;2.07;;;;;;;23.09;69.06;98484.94;5012685;28;20572;-25
2023/10/01 07:41:20;;;;;;;2.77;2.50;;;;;;;23.08;68.88;98486.66;5012766;28;20208;-25
2023/10/01 07:43:47;;;;;;;2.70;2.50;;;;;;;23.09;68.83;98485.84;5012506;28;20745;-25
2023/10/01 07:46:14;;;;;;;2.57;2.37;;;;;;;23.09;69.05;98488.41;5012148;28;20202;-25
2023/10/01 07:48:48;;;;;;;2.90;2.60;;;;;;;23.09;68.97;98493.53;5008444;28;20281;-25
2023/10/01 07:51:26;;;;;;;2.47;2.27;;;;;;;23.09;68.99;98496.09;5009837;28;20209;-25
2023/10/01 07:53:53;;;;;;;3.13;2.57;;;;;;;23.08;68.85;98496.91;5012604;28;20624;-25
2023/10/01 07:56:23;;;;;;;2.50;2.30;;;;;;;23.08;68.96;98498.59;5012170;28;20217;-25
2023/10/01 07:58:57;;;;;;;2.40;2.20;;;;;;;23.08;68.97;98498.59;5012119;28;20297;-25
2023/10/01 08:01:42;;;;;;;2.87;2.40;;;;;;;23.07;68.77;98505.41;5012312;28;20216;-25
2023/10/01 08:07:06;;;;;;;2.63;2.43;;;;;;;23.08;69.03;98504.63;5012308;28;20253;-25
2023/10/01 08:09:33;;;;;;;2.57;2.20;;;;;;;23.07;69.02;98505.41;5012000;28;20232;-25
2023/10/01 08:12:05;;;;;;;2.67;2.33;;;;;;;23.08;69.01;98504.63;5012201;28;20277;-25
2023/10/01 08:14:35;;;;;;;2.30;2.10;;;;;;;23.08;68.93;98507.19;5011895;28;20671;-25
2023/10/01 08:17:05;;;;;;;2.60;2.40;;;;;;;23.08;68.97;98509.75;5011853;28;20202;-25
2023/10/01 08:19:45;;;;;;;2.30;2.10;;;;;;;23.09;68.95;98508.03;5012078;28;20296;-25
2023/10/01 08:22:13;;;;;;;2.80;2.40;;;;;;;23.08;68.94;98509.75;4999585;28;20288;-25
2023/10/01 08:24:45;;;;;;;2.80;2.57;;;;;;;23.09;69.09;98508.03;5004056;28;20548;-25
2023/10/01 08:27:12;;;;;;;2.40;2.20;;;;;;;23.09;68.98;98513.16;5011642;28;20233;-25
2023/10/01 08:32:29;;;;;;;2.73;2.40;;;;;;;23.08;68.98;98519.13;5011804;28;20284;-25
2023/10/01 08:35:02;;;;;;;2.40;2.20;;;;;;;23.07;68.99;98512.25;5011871;28;20200;-25
2023/10/01 08:37:31;;;;;;;2.43;2.23;;;;;;;23.06;68.93;98508.78;5011690;28;20680;-25
2023/10/01 08:39:58;;;;;;;2.80;2.50;;;;;;;23.06;68.97;98508.78;5012035;28;20203;-25
2023/10/01 08:42:31;;;;;;;2.50;2.30;;;;;;;23.07;69.21;98509.69;5009834;28;20202;-25
2023/10/01 08:45:03;;;;;;;3.37;2.90;;;;;;;23.06;69.06;98503.66;5011738;28;20272;-25
2023/10/01 08:47:31;;;;;;;2.47;2.27;;;;;;;23.07;68.97;98504.56;5011648;28;20233;-25
2023/10/01 09:00:51;;;;;;;2.33;2.13;;;;;;;23.08;69.06;98513.97;4999824;28;20229;-25
2023/10/01 09:03:28;;;;;;;2.50;2.30;;;;;;;23.07;68.95;98518.22;5011481;28;20208;-25
2023/10/01 09:06:24;;;;;;;2.50;2.30;;;;;;;23.07;68.87;98518.22;5007830;28;20237;-25
2023/10/01 09:08:54;;;;;;;2.43;2.00;;;;;;;23.08;69.05;98524.25;5011320;28;20614;-26
2023/10/01 09:11:35;;;;;;;2.80;2.50;;;;;;;23.03;68.87;98512.91;5012211;28;20264;-25
2023/10/01 09:14:15;;;;;;;2.40;2.20;;;;;;;23.07;69.03;98514.81;5009896;28;20233;-25
2023/10/01 09:16:45;;;;;;;2.73;2.40;;;;;;;23.06;68.82;98508.78;5015092;28;20256;-25
2023/10/01 09:22:16;;;;;;;2.30;2.10;;;;;;;23.07;69.08;98519.94;5011317;28;20198;-25
2023/10/01 09:24:55;;;;;;;2.50;2.23;;;;;;;23.06;68.83;98516.50;5015371;28;20544;-25
2023/10/01 09:27:28;;;;;;;2.40;2.20;;;;;;;23.06;69.06;98516.50;5014718;28;20214;-25
2023/10/01 09:32:54;;;;;;;2.30;2.10;;;;;;;23.06;68.99;98502.78;5008074;28;20256;-25
2023/10/01 09:35:30;;;;;;;2.10;1.90;;;;;;;23.06;69.18;98502.78;5014781;28;20202;-25
2023/10/01 09:38:10;;;;;;;2.50;2.30;;;;;;;23.07;69.14;98502.00;5014850;28;20688;-25
2023/10/01 09:40:47;;;;;;;2.40;2.17;;;;;;;23.07;69.25;98504.56;5014752;28;20244;-25
2023/10/01 09:43:34;;;;;;;2.77;2.47;;;;;;;23.07;69.13;98500.28;5015350;28;20210;-25
2023/10/01 09:46:01;;;;;;;3.13;2.70;;;;;;;22.44;69.09;98394.38;5014747;28;20230;-25
2023/10/01 09:48:36;;;;;;;2.43;2.23;;;;;;;23.06;68.99;98492.53;5011243;28;20602;-25
2023/10/01 09:51:16;;;;;;;2.80;2.50;;;;;;;23.06;69.15;98506.22;5013878;28;20260;-25
2023/10/01 09:53:50;;;;;;;3.07;2.10;;;;;;;23.05;68.96;98499.38;5014076;28;20693;-25
2023/10/01 09:56:46;;;;;;;2.37;2.17;;;;;;;23.05;69.07;98494.25;5014613;28;20208;-25
2023/10/01 09:59:15;;;;;;;3.03;2.40;;;;;;;23.05;69.18;98489.13;5010129;28;20229;-25
2023/10/01 10:01:42;;;;;;;2.60;2.40;;;;;;;23.06;68.95;98489.97;5012339;28;20249;-25
2023/10/01 10:04:10;;;;;;;2.53;2.33;;;;;;;23.06;69.17;98489.97;5014333;28;20252;-25
2023/10/01 10:06:41;;;;;;;2.50;2.30;;;;;;;23.06;69.11;98484.84;5014016;28;20581;-25
2023/10/01 10:09:09;;;;;;;2.27;2.07;;;;;;;23.03;69.10;98477.91;5014429;28;20222;-26
2023/10/01 10:11:37;;;;;;;2.23;2.03;;;;;;;23.04;69.02;98477.09;4985333;28;20277;-25
2023/10/01 10:14:28;;;;;;;2.30;2.07;;;;;;;23.07;68.79;98484.88;4991722;28;20417;-25
2023/10/01 10:17:07;;;;;;;2.20;2.00;;;;;;;23.08;69.04;98489.22;5010273;28;20194;-25
2023/10/01 10:19:47;;;;;;;2.40;2.20;;;;;;;23.08;69.13;98478.97;5013966;28;20226;-25
2023/10/01 10:22:16;;;;;;;2.43;2.23;;;;;;;23.08;69.07;98473.84;4995699;28;20296;-25
2023/10/01 10:24:46;;;;;;;2.47;2.27;;;;;;;23.09;69.04;98474.69;5013763;28;20684;-25
2023/10/01 10:27:26;;;;;;;2.40;2.20;;;;;;;23.07;68.98;98472.06;5013959;28;20209;-25
2023/10/01 10:30:14;;;;;;;2.53;2.33;;;;;;;23.07;68.98;98466.94;5006276;28;20252;-25
2023/10/01 10:33:14;;;;;;;2.10;2.00;;;;;;;23.07;68.95;98458.41;5013081;28;20209;-25
2023/10/01 10:35:50;;;;;;;2.47;2.27;;;;;;;23.07;68.88;98466.09;5013433;28;20256;-25
2023/10/01 10:38:51;;;;;;;2.33;2.13;;;;;;;23.07;69.12;98460.97;5013928;28;20225;-25
2023/10/01 10:41:25;;;;;;;2.43;2.10;;;;;;;23.07;69.16;98460.97;5009431;28;20206;-25
2023/10/01 10:44:08;;;;;;;2.40;2.20;;;;;;;23.07;69.05;98466.09;5006570;28;20206;-25
2023/10/01 10:47:03;;;;;;;2.33;2.13;;;;;;;23.07;69.17;98456.69;5008767;28;20268;-25
2023/10/01 10:49:49;;;;;;;2.33;2.13;;;;;;;23.08;69.10;98465.25;5012452;28;20233;-25
2023/10/01 10:52:42;;;;;;;2.17;1.97;;;;;;;23.07;68.89;98459.25;5012985;28;20203;-25
2023/10/01 10:55:16;;;;;;;2.33;2.13;;;;;;;23.08;69.02;98466.16;5008799;28;20288;-25
2023/10/01 10:57:48;;;;;;;2.20;2.00;;;;;;;23.09;68.97;98461.88;5012486;28;20253;-25
2023/10/01 11:00:25;;;;;;;2.43;2.23;;;;;;;23.07;68.99;98463.53;5012455;28;20585;-25
2023/10/01 11:03:00;;;;;;;5.00;1.97;;;;;;;23.07;69.08;98464.38;5005238;28;20209;-25
2023/10/01 11:05:30;;;;;;;2.43;2.20;;;;;;;23.05;69.07;98455.78;5010172;28;20198;-25
2023/10/01 11:08:02;;;;;;;1.77;1.67;;;;;;;23.07;69.16;98460.97;5010471;28;20273;-25
2023/10/01 11:10:48;;;;;;;2.40;2.20;;;;;;;23.07;69.06;98455.84;5004226;28;20198;-25
2023/10/01 11:13:20;;;;;;;2.47;2.27;;;;;;;23.07;68.93;98459.25;5000746;28;20249;-25
2023/10/01 11:15:47;;;;;;;2.30;2.10;;;;;;;23.06;68.99;98460.06;5008559;28;20309;-25
2023/10/01 11:18:14;;;;;;;2.10;1.90;;;;;;;23.04;69.00;98446.31;5012321;28;20230;-25
2023/10/01 11:20:45;;;;;;;2.30;2.10;;;;;;;22.98;68.88;98435.81;5010810;28;20214;-25
2023/10/01 11:23:16;;;;;;;2.27;2.07;;;;;;;23.07;69.04;98446.44;4989766;28;20203;-25
2023/10/01 11:25:47;;;;;;;2.10;1.90;;;;;;;23.08;68.88;98443.06;5002430;28;20205;-25
2023/10/01 11:28:14;;;;;;;2.10;1.90;;;;;;;23.08;69.05;98445.63;5006459;28;20672;-25
2023/10/01 11:30:43;;;;;;;2.43;2.07;;;;;;;23.08;69.05;98437.94;5011807;28;20276;-25
2023/10/01 11:33:14;;;;;;;2.40;2.20;;;;;;;23.09;68.96;98436.22;5007058;28;20219;-25
2023/10/01 11:36:06;;;;;;;2.17;1.90;;;;;;;23.09;68.91;98433.66;5008778;28;20202;-25
2023/10/01 11:38:37;;;;;;;2.20;2.00;;;;;;;23.09;69.02;98433.66;4999186;28;20219;-25
2023/10/01 11:41:06;;;;;;;2.17;1.97;;;;;;;23.09;68.96;98433.66;5003443;28;20206;-25
2023/10/01 11:43:45;;;;;;;2.20;2.00;;;;;;;23.08;68.95;98426.81;5006237;28;20703;-25
2023/10/01 11:46:23;;;;;;;2.30;2.10;;;;;;;23.09;68.92;98420.84;5003358;28;20206;-25
2023/10/01 11:49:04;;;;;;;2.50;2.30;;;;;;;23.08;68.83;98425.13;4962815;28;1086574;-25
2023/10/01 11:51:32;;;;;;;2.30;2.10;;;;;;;23.07;69.12;98415.66;5009853;28;20256;-25
2023/10/01 11:54:09;;;;;;;2.03;1.90;;;;;;;23.08;68.89;98419.09;5004558;28;20205;-25
2023/10/01 11:56:37;;;;;;;2.20;2.00;;;;;;;23.08;68.95;98419.09;5004121;28;20205;-25
2023/10/01 11:59:26;;;;;;;2.17;1.97;;;;;;;23.09;68.96;98406.34;5005135;28;20674;-25
2023/10/01 12:01:52;;;;;;;2.07;1.93;;;;;;;23.09;68.98;98395.19;5009061;28;20664;-25
2023/10/01 12:04:48;;;;;;;2.00;1.87;;;;;;;23.08;68.89;98390.91;5000763;28;20199;-25
2023/10/01 12:07:18;;;;;;;2.23;2.03;;;;;;;23.09;68.88;98390.97;5005611;28;20230;-25
2023/10/01 12:09:49;;;;;;;2.77;2.20;;;;;;;23.09;68.91;98382.38;5007481;28;20269;-25
2023/10/01 12:12:21;;;;;;;2.20;2.00;;;;;;;23.10;68.92;98381.59;5012217;28;20204;-25
2023/10/01 12:15:33;;;;;;;2.33;2.13;;;;;;;23.08;68.92;98378.97;5006525;28;20680;-25
2023/10/01 12:17:46;;;;;;;2.30;2.10;;;;;;;23.10;68.95;98381.59;5009131;28;20232;-25
2023/10/01 12:20:22;;;;;;;2.00;1.90;;;;;;;23.09;68.86;98378.13;5000345;28;20213;-25
2023/10/01 12:28:24;;;;;;;2.10;1.87;;;;;;;23.07;68.92;98372.06;5000684;28;20313;-25
2023/10/01 12:31:08;;;;;;;2.03;1.93;;;;;;;23.07;68.78;98374.63;5005538;28;20198;-25
2023/10/01 12:33:40;;;;;;;2.00;1.90;;;;;;;23.07;68.94;98374.63;5009094;28;20590;-25
2023/10/01 12:39:03;;;;;;;1.83;1.73;;;;;;;23.07;68.95;98364.38;5002548;28;20219;-25
2023/10/01 12:41:30;;;;;;;1.93;1.77;;;;;;;23.08;68.96;98353.31;5011835;28;20210;-25
2023/10/01 12:44:14;;;;;;;1.90;1.70;;;;;;;23.08;68.77;98355.88;5004740;28;20202;-25
2023/10/01 12:46:51;;;;;;;2.00;1.80;;;;;;;23.09;68.94;98354.19;5001548;28;20206;-25
2023/10/01 12:49:18;;;;;;;1.93;1.83;;;;;;;23.09;69.28;98355.06;5006318;28;20254;-25
2023/10/01 12:51:54;;;;;;;2.00;1.80;;;;;;;23.09;68.95;98357.63;5009809;28;20229;-25
2023/10/01 12:54:25;;;;;;;2.07;1.90;;;;;;;23.09;68.95;98349.94;5000227;28;20206;-25